Terminal Aerodrome Forecast
Issued by NWS

Home | Current Version | Previous Version | Text Only | Print | Product List | Glossary On
Versions: 1 2 3 4 5 6 7 8 9 10 11 12 13 14 15 16 17 18 19 20 21
741
FTUS41 KALY 310539
TAFPSF
TAF
KPSF 310539Z 3106/0106 00000KT P6SM SCT250
     FM310800 VRB03KT 5SM BR BKN250
     FM311200 23005KT P6SM SCT120 BKN200
     FM311500 24008KT P6SM SCT050 OVC120
     FM312100 25009KT P6SM VCSH BKN050 OVC100
     FM010000 23005KT P6SM VCSH OVC050=

USA.gov is the U.S. government's official web portal to all federal, state and local government web resources and services.